createdAt,value
2018-02-23T00:01:29.073Z,100131.59
2018-02-23T00:07:48.599Z,100125.25
2018-02-23T00:13:53.928Z,100123.19
2018-02-23T00:19:59.029Z,100118.52
2018-02-23T00:26:04.453Z,100122.94
2018-02-23T00:32:09.394Z,100118.43
2018-02-23T00:38:14.545Z,100119.70
2018-02-23T00:44:21.762Z,100126.42
2018-02-23T00:50:30.405Z,100121.58
2018-02-23T00:56:37.898Z,100120.45
2018-02-23T01:02:43.309Z,100125.41
2018-02-23T01:08:49.557Z,100116.28
2018-02-23T01:14:56.291Z,100106.72
2018-02-23T01:21:02.544Z,100101.67
2018-02-23T01:27:09.743Z,100095.06
2018-02-23T01:33:21.482Z,100097.86
2018-02-23T01:39:27.344Z,100097.55
2018-02-23T01:45:32.890Z,100106.52
2018-02-23T01:51:39.343Z,100102.83
2018-02-23T01:57:44.574Z,100094.92
2018-02-23T02:03:49.708Z,100109.50
2018-02-23T02:09:55.903Z,100108.50
2018-02-23T02:16:01.108Z,100121.52
2018-02-23T02:22:06.281Z,100123.62
2018-02-23T02:28:11.061Z,100125.55
2018-02-23T02:34:15.807Z,100125.20
2018-02-23T02:40:21.181Z,100121.17
2018-02-23T02:46:26.538Z,100102.97
2018-02-23T02:52:32.860Z,100102.88
2018-02-23T02:58:39.381Z,100092.41
2018-02-23T03:04:46.844Z,100086.80
2018-02-23T03:10:56.670Z,100085.31
2018-02-23T03:17:01.641Z,100086.61
2018-02-23T03:23:07.344Z,100087.38
2018-02-23T03:29:12.146Z,100086.12
2018-02-23T03:35:16.850Z,100087.78
2018-02-23T03:41:24.886Z,100088.00
2018-02-23T03:47:32.400Z,100087.45
2018-02-23T03:53:37.382Z,100090.89
2018-02-23T03:59:42.252Z,100096.78
2018-02-23T04:05:48.409Z,100095.47
2018-02-23T04:11:53.579Z,100103.91
2018-02-23T04:17:59.581Z,100118.34
2018-02-23T04:24:04.478Z,100118.19
2018-02-23T04:30:10.115Z,100118.06
2018-02-23T04:36:16.201Z,100127.49
2018-02-23T04:42:21.618Z,100120.91
2018-02-23T04:48:26.583Z,100124.09
2018-02-23T04:54:32.045Z,100123.20
2018-02-23T05:00:37.840Z,100125.95
2018-02-23T05:06:42.705Z,100127.34
2018-02-23T05:12:48.110Z,100131.05
2018-02-23T05:28:38.034Z,100136.80
2018-02-23T05:34:43.136Z,100136.56
2018-02-23T05:40:48.600Z,100131.66
2018-02-23T05:46:55.018Z,100136.09
2018-02-23T05:53:00.110Z,100138.26
2018-02-23T05:59:05.130Z,100139.41
2018-02-23T06:05:10.075Z,100148.34
2018-02-23T06:11:15.161Z,100150.55
2018-02-23T06:17:26.229Z,100145.34
2018-02-23T06:23:31.400Z,100170.05
2018-02-23T06:29:36.152Z,100165.56
2018-02-23T06:35:44.145Z,100176.50
2018-02-23T06:41:51.373Z,100175.29
2018-02-23T06:47:57.005Z,100182.62
2018-02-23T06:54:01.972Z,100187.97
2018-02-23T07:00:07.330Z,100183.75
2018-02-23T07:06:12.790Z,100199.22
2018-02-23T07:12:17.509Z,100202.28
2018-02-23T07:18:23.606Z,100205.23
2018-02-23T07:24:28.759Z,100206.08
2018-02-23T07:30:33.773Z,100208.66
2018-02-23T07:36:39.088Z,100212.44
2018-02-23T07:42:44.095Z,100214.83
2018-02-23T07:48:49.052Z,100225.44
2018-02-23T07:54:54.980Z,100221.08
2018-02-23T08:00:59.689Z,100227.06
2018-02-23T08:07:05.255Z,100232.05
2018-02-23T08:13:09.983Z,100225.19
2018-02-23T08:19:15.443Z,100231.27
2018-02-23T08:25:20.914Z,100227.31
2018-02-23T08:31:26.388Z,100231.51
2018-02-23T08:37:32.259Z,100221.58
2018-02-23T08:43:37.192Z,100220.45
2018-02-23T08:49:43.154Z,100207.94
2018-02-23T08:55:48.116Z,100209.17
2018-02-23T09:01:54.518Z,100213.66
2018-02-23T09:07:59.229Z,100218.52
2018-02-23T09:14:04.514Z,100217.55
2018-02-23T09:20:09.930Z,100224.44
2018-02-23T09:26:15.449Z,100223.69
2018-02-23T09:38:55.207Z,100216.22
2018-02-23T09:44:59.767Z,100214.09
2018-02-23T09:51:04.339Z,100218.92
2018-02-23T09:57:08.902Z,100212.78
2018-02-23T10:03:13.598Z,100206.81
2018-02-23T10:09:18.409Z,100208.03
2018-02-23T10:15:23.702Z,100200.12
2018-02-23T10:21:28.315Z,100208.91
2018-02-23T10:27:32.878Z,100196.44
2018-02-23T10:33:37.647Z,100188.89
2018-02-23T10:39:42.178Z,100181.30
2018-02-23T10:45:47.557Z,100183.38
2018-02-23T10:51:52.490Z,100183.55
2018-02-23T10:57:57.927Z,100180.52
2018-02-23T11:04:02.590Z,100182.84
2018-02-23T11:10:07.089Z,100181.28
2018-02-23T11:16:11.933Z,100179.06
2018-02-23T11:22:16.585Z,100172.16
2018-02-23T11:28:21.393Z,100166.75
2018-02-23T11:34:26.123Z,100153.84
2018-02-23T11:40:30.763Z,100147.27
2018-02-23T11:46:40.471Z,100151.01
2018-02-23T11:52:45.064Z,100149.61
2018-02-23T11:58:50.146Z,100140.81
2018-02-23T12:04:54.747Z,100136.36
2018-02-23T12:10:59.386Z,100143.69
2018-02-23T12:17:03.964Z,100141.09
2018-02-23T12:23:09.320Z,100145.83
2018-02-23T12:29:13.926Z,100146.94
2018-02-23T12:35:18.554Z,100132.77
2018-02-23T12:41:23.546Z,100126.72
2018-02-23T12:47:28.170Z,100114.28
2018-02-23T12:53:33.684Z,100111.66
2018-02-23T12:59:38.259Z,100107.16
2018-02-23T13:05:42.883Z,100103.59
2018-02-23T13:11:47.644Z,100096.03
2018-02-23T13:17:52.426Z,100103.20
2018-02-23T13:23:57.781Z,100106.86
2018-02-23T13:30:02.340Z,100107.42
2018-02-23T13:36:07.757Z,100103.58
2018-02-23T13:42:12.411Z,100107.08
2018-02-23T13:48:18.717Z,100098.14
2018-02-23T13:54:24.560Z,100097.18
2018-02-23T14:00:29.808Z,100096.59
2018-02-23T14:06:36.867Z,100098.17
2018-02-23T14:12:44.752Z,100087.19
2018-02-23T14:25:38.345Z,100092.09
2018-02-23T14:31:43.143Z,100084.52
2018-02-23T14:37:50.746Z,100089.56
2018-02-23T14:44:01.259Z,100086.31
2018-02-23T14:50:24.608Z,100078.09
2018-02-23T14:56:31.611Z,100076.72
2018-02-23T15:02:36.710Z,100068.78
2018-02-23T15:08:42.420Z,100069.30
2018-02-23T15:14:48.993Z,100072.94
2018-02-23T15:20:55.772Z,100069.85
2018-02-23T15:27:01.255Z,100059.65
2018-02-23T15:33:05.865Z,100078.62
2018-02-23T15:39:10.743Z,100079.04
2018-02-23T15:45:16.614Z,100080.30
2018-02-23T15:51:25.537Z,100087.02
2018-02-23T15:57:31.575Z,100086.06
2018-02-23T16:03:36.227Z,100094.05
2018-02-23T16:09:42.115Z,100095.06
2018-02-23T16:15:48.290Z,100104.91
2018-02-23T16:21:54.326Z,100104.34
2018-02-23T16:27:59.443Z,100103.61
2018-02-23T16:34:04.158Z,100102.08
2018-02-23T16:40:09.052Z,100102.67
2018-02-23T16:46:14.244Z,100101.56
2018-02-23T16:52:19.988Z,100114.13
2018-02-23T16:58:24.758Z,100125.87
2018-02-23T17:04:29.532Z,100137.91
2018-02-23T17:10:34.144Z,100148.00
2018-02-23T17:16:40.117Z,100139.07
2018-02-23T17:22:44.870Z,100144.19
2018-02-23T17:28:52.326Z,100138.83
2018-02-23T17:34:57.171Z,100145.30
2018-02-23T17:41:02.450Z,100142.41
2018-02-23T17:47:07.217Z,100149.30
2018-02-23T17:53:12.289Z,100149.02
2018-02-23T17:59:17.094Z,100149.22
2018-02-23T18:05:26.002Z,100150.48
2018-02-23T18:11:30.628Z,100156.06
2018-02-23T18:17:35.419Z,100165.87
2018-02-23T18:23:40.260Z,100169.17
2018-02-23T18:29:46.153Z,100183.34
2018-02-23T18:35:52.513Z,100196.48
2018-02-23T18:41:57.835Z,100200.66
2018-02-23T18:48:04.847Z,100196.72
2018-02-23T18:54:09.646Z,100194.52
2018-02-23T19:00:15.195Z,100197.88
2018-02-23T19:06:20.106Z,100203.37
2018-02-23T19:12:24.794Z,100204.95
2018-02-23T19:18:30.360Z,100216.64
2018-02-23T19:24:35.032Z,100221.21
2018-02-23T19:30:39.735Z,100225.99
2018-02-23T19:36:44.335Z,100228.09
2018-02-23T19:42:50.947Z,100230.41
2018-02-23T19:48:56.858Z,100235.50
2018-02-23T19:55:01.532Z,100240.45
2018-02-23T20:01:06.516Z,100238.27
2018-02-23T20:07:11.397Z,100248.30
2018-02-23T20:13:16.862Z,100261.91
2018-02-23T20:19:23.347Z,100265.48
2018-02-23T20:25:28.112Z,100263.42
2018-02-23T20:31:32.808Z,100279.63
2018-02-23T20:37:39.074Z,100281.98
2018-02-23T20:43:44.713Z,100295.45
2018-02-23T20:49:50.773Z,100290.28
2018-02-23T20:55:56.440Z,100289.26
2018-02-23T21:02:01.477Z,100293.19
2018-02-23T21:08:06.268Z,100293.71
2018-02-23T21:14:11.200Z,100299.69
2018-02-23T21:20:15.954Z,100301.78
2018-02-23T21:26:20.939Z,100320.21
2018-02-23T21:32:26.088Z,100314.23
2018-02-23T21:38:30.736Z,100309.97
2018-02-23T21:44:48.151Z,100305.92
2018-02-23T21:50:53.161Z,100306.42
2018-02-23T21:56:58.742Z,100314.20
2018-02-23T22:03:03.428Z,100309.43
2018-02-23T22:09:09.723Z,100307.32
2018-02-23T22:15:14.461Z,100314.63
2018-02-23T22:21:20.023Z,100312.55
2018-02-23T22:27:25.386Z,100316.57
2018-02-23T22:33:30.081Z,100323.08
2018-02-23T22:39:34.806Z,100327.63
2018-02-23T22:45:40.200Z,100328.65
2018-02-23T22:51:46.024Z,100333.00
2018-02-23T22:57:51.568Z,100328.09
2018-02-23T23:03:56.474Z,100331.38
2018-02-23T23:10:01.097Z,100323.66
2018-02-23T23:16:07.236Z,100325.30
2018-02-23T23:22:12.096Z,100326.33
2018-02-23T23:28:17.051Z,100329.00
2018-02-23T23:34:23.488Z,100341.38
2018-02-23T23:40:28.869Z,100333.30
2018-02-23T23:46:33.588Z,100340.69
2018-02-23T23:52:38.365Z,100336.89
2018-02-23T23:58:44.852Z,100339.42
